sensor_id;sensor_type;location;lat;lon;timestamp;P1;durP1;ratioP1;P2;durP2;ratioP2
4517;SDS011;2271;49.464;11.070;2023-02-28T00:00:46;2.63;;;1.80;;
4517;SDS011;2271;49.464;11.070;2023-02-28T00:03:11;2.93;;;1.73;;
4517;SDS011;2271;49.464;11.070;2023-02-28T00:05:37;4.13;;;1.80;;
4517;SDS011;2271;49.464;11.070;2023-02-28T00:08:02;2.13;;;1.90;;
4517;SDS011;2271;49.464;11.070;2023-02-28T00:10:29;3.27;;;1.90;;
4517;SDS011;2271;49.464;11.070;2023-02-28T00:12:56;4.63;;;1.97;;
4517;SDS011;2271;49.464;11.070;2023-02-28T00:15:25;7.40;;;2.37;;
4517;SDS011;2271;49.464;11.070;2023-02-28T00:17:51;2.97;;;1.73;;
4517;SDS011;2271;49.464;11.070;2023-02-28T00:20:17;2.40;;;2.20;;
4517;SDS011;2271;49.464;11.070;2023-02-28T00:22:45;3.80;;;2.40;;
4517;SDS011;2271;49.464;11.070;2023-02-28T00:25:13;4.37;;;2.13;;
4517;SDS011;2271;49.464;11.070;2023-02-28T00:27:41;2.83;;;1.50;;
4517;SDS011;2271;49.464;11.070;2023-02-28T00:30:08;4.27;;;2.17;;
4517;SDS011;2271;49.464;11.070;2023-02-28T00:32:36;2.33;;;2.00;;
4517;SDS011;2271;49.464;11.070;2023-02-28T00:35:02;3.07;;;2.23;;
4517;SDS011;2271;49.464;11.070;2023-02-28T00:37:28;4.03;;;1.90;;
4517;SDS011;2271;49.464;11.070;2023-02-28T00:39:54;2.60;;;1.60;;
4517;SDS011;2271;49.464;11.070;2023-02-28T00:42:20;2.60;;;2.37;;
4517;SDS011;2271;49.464;11.070;2023-02-28T00:44:45;2.00;;;1.70;;
4517;SDS011;2271;49.464;11.070;2023-02-28T00:47:11;3.20;;;2.33;;
4517;SDS011;2271;49.464;11.070;2023-02-28T00:49:37;4.83;;;2.43;;
4517;SDS011;2271;49.464;11.070;2023-02-28T00:52:02;2.97;;;2.47;;
4517;SDS011;2271;49.464;11.070;2023-02-28T00:54:28;4.77;;;2.90;;
4517;SDS011;2271;49.464;11.070;2023-02-28T00:56:54;3.03;;;2.20;;
4517;SDS011;2271;49.464;11.070;2023-02-28T00:59:19;2.73;;;1.97;;
4517;SDS011;2271;49.464;11.070;2023-02-28T01:01:46;4.10;;;2.70;;
4517;SDS011;2271;49.464;11.070;2023-02-28T01:04:13;3.60;;;2.03;;
4517;SDS011;2271;49.464;11.070;2023-02-28T01:06:39;2.47;;;1.90;;
4517;SDS011;2271;49.464;11.070;2023-02-28T01:09:05;2.17;;;1.97;;
4517;SDS011;2271;49.464;11.070;2023-02-28T01:11:32;4.43;;;2.60;;
4517;SDS011;2271;49.464;11.070;2023-02-28T01:13:58;2.67;;;2.10;;
4517;SDS011;2271;49.464;11.070;2023-02-28T01:16:24;4.20;;;2.33;;
4517;SDS011;2271;49.464;11.070;2023-02-28T01:18:50;2.77;;;2.10;;
4517;SDS011;2271;49.464;11.070;2023-02-28T01:21:16;4.00;;;2.50;;
4517;SDS011;2271;49.464;11.070;2023-02-28T01:23:44;2.80;;;2.27;;
4517;SDS011;2271;49.464;11.070;2023-02-28T01:26:14;3.93;;;2.77;;
4517;SDS011;2271;49.464;11.070;2023-02-28T01:28:43;3.60;;;2.37;;
4517;SDS011;2271;49.464;11.070;2023-02-28T01:31:09;3.30;;;2.03;;
4517;SDS011;2271;49.464;11.070;2023-02-28T01:33:35;3.67;;;2.67;;
4517;SDS011;2271;49.464;11.070;2023-02-28T01:36:03;2.97;;;2.30;;
4517;SDS011;2271;49.464;11.070;2023-02-28T01:38:30;2.60;;;2.00;;
4517;SDS011;2271;49.464;11.070;2023-02-28T01:40:57;2.93;;;2.07;;
4517;SDS011;2271;49.464;11.070;2023-02-28T01:43:23;4.27;;;2.73;;
4517;SDS011;2271;49.464;11.070;2023-02-28T01:45:52;3.90;;;2.73;;
4517;SDS011;2271;49.464;11.070;2023-02-28T01:48:19;3.00;;;2.23;;
4517;SDS011;2271;49.464;11.070;2023-02-28T01:50:49;4.20;;;2.77;;
4517;SDS011;2271;49.464;11.070;2023-02-28T01:53:16;3.10;;;2.27;;
4517;SDS011;2271;49.464;11.070;2023-02-28T01:55:47;2.77;;;2.20;;
4517;SDS011;2271;49.464;11.070;2023-02-28T01:58:16;4.60;;;2.47;;
4517;SDS011;2271;49.464;11.070;2023-02-28T02:00:42;2.30;;;2.07;;
4517;SDS011;2271;49.464;11.070;2023-02-28T02:03:09;3.17;;;2.30;;
4517;SDS011;2271;49.464;11.070;2023-02-28T02:05:38;5.03;;;2.90;;
4517;SDS011;2271;49.464;11.070;2023-02-28T02:08:06;6.53;;;2.63;;
4517;SDS011;2271;49.464;11.070;2023-02-28T02:25:32;3.23;;;2.00;;
4517;SDS011;2271;49.464;11.070;2023-02-28T02:39:47;4.60;;;2.70;;
4517;SDS011;2271;49.464;11.070;2023-02-28T02:42:42;5.67;;;2.30;;
4517;SDS011;2271;49.464;11.070;2023-02-28T02:45:11;7.00;;;2.47;;
4517;SDS011;2271;49.464;11.070;2023-02-28T02:47:42;2.70;;;2.43;;
4517;SDS011;2271;49.464;11.070;2023-02-28T02:50:11;3.73;;;2.67;;
4517;SDS011;2271;49.464;11.070;2023-02-28T02:52:44;3.33;;;2.60;;
4517;SDS011;2271;49.464;11.070;2023-02-28T02:55:14;6.20;;;3.57;;
4517;SDS011;2271;49.464;11.070;2023-02-28T03:00:16;4.30;;;2.87;;
4517;SDS011;2271;49.464;11.070;2023-02-28T03:02:45;3.90;;;2.43;;
4517;SDS011;2271;49.464;11.070;2023-02-28T03:05:35;3.83;;;2.43;;
4517;SDS011;2271;49.464;11.070;2023-02-28T03:08:09;3.20;;;2.30;;
4517;SDS011;2271;49.464;11.070;2023-02-28T03:10:36;3.77;;;2.57;;
4517;SDS011;2271;49.464;11.070;2023-02-28T03:18:45;4.17;;;2.80;;
4517;SDS011;2271;49.464;11.070;2023-02-28T03:21:27;2.77;;;2.50;;
4517;SDS011;2271;49.464;11.070;2023-02-28T03:26:22;3.57;;;2.67;;
4517;SDS011;2271;49.464;11.070;2023-02-28T03:28:57;4.30;;;3.03;;
4517;SDS011;2271;49.464;11.070;2023-02-28T03:31:34;5.77;;;3.47;;
4517;SDS011;2271;49.464;11.070;2023-02-28T03:36:51;5.23;;;3.33;;
4517;SDS011;2271;49.464;11.070;2023-02-28T03:39:21;4.13;;;2.87;;
4517;SDS011;2271;49.464;11.070;2023-02-28T03:44:43;4.13;;;3.37;;
4517;SDS011;2271;49.464;11.070;2023-02-28T03:47:21;5.13;;;3.50;;
4517;SDS011;2271;49.464;11.070;2023-02-28T03:55:58;5.73;;;4.27;;
4517;SDS011;2271;49.464;11.070;2023-02-28T03:58:33;4.87;;;3.83;;
4517;SDS011;2271;49.464;11.070;2023-02-28T04:01:07;3.20;;;2.83;;
4517;SDS011;2271;49.464;11.070;2023-02-28T04:03:40;5.17;;;3.83;;
4517;SDS011;2271;49.464;11.070;2023-02-28T04:06:07;4.53;;;3.13;;
4517;SDS011;2271;49.464;11.070;2023-02-28T04:08:38;6.93;;;3.87;;
4517;SDS011;2271;49.464;11.070;2023-02-28T04:11:06;7.53;;;4.07;;
4517;SDS011;2271;49.464;11.070;2023-02-28T04:13:44;6.40;;;3.60;;
4517;SDS011;2271;49.464;11.070;2023-02-28T04:16:10;5.33;;;3.70;;
4517;SDS011;2271;49.464;11.070;2023-02-28T04:18:39;3.63;;;3.17;;
4517;SDS011;2271;49.464;11.070;2023-02-28T04:21:05;7.83;;;4.70;;
4517;SDS011;2271;49.464;11.070;2023-02-28T04:23:31;5.17;;;3.03;;
4517;SDS011;2271;49.464;11.070;2023-02-28T04:25:57;4.50;;;3.33;;
4517;SDS011;2271;49.464;11.070;2023-02-28T04:28:23;4.27;;;3.40;;
4517;SDS011;2271;49.464;11.070;2023-02-28T04:30:58;4.03;;;3.37;;
4517;SDS011;2271;49.464;11.070;2023-02-28T04:33:26;5.70;;;4.27;;
4517;SDS011;2271;49.464;11.070;2023-02-28T04:36:01;4.83;;;3.27;;
4517;SDS011;2271;49.464;11.070;2023-02-28T04:38:29;6.53;;;3.63;;
4517;SDS011;2271;49.464;11.070;2023-02-28T04:40:58;3.83;;;3.10;;
4517;SDS011;2271;49.464;11.070;2023-02-28T04:43:25;5.10;;;4.03;;
4517;SDS011;2271;49.464;11.070;2023-02-28T04:45:51;4.17;;;3.20;;
4517;SDS011;2271;49.464;11.070;2023-02-28T04:48:17;6.53;;;3.57;;
4517;SDS011;2271;49.464;11.070;2023-02-28T04:50:43;4.07;;;3.33;;
4517;SDS011;2271;49.464;11.070;2023-02-28T04:53:09;5.47;;;3.60;;
4517;SDS011;2271;49.464;11.070;2023-02-28T04:55:34;3.97;;;3.57;;
4517;SDS011;2271;49.464;11.070;2023-02-28T04:58:00;6.07;;;4.40;;
4517;SDS011;2271;49.464;11.070;2023-02-28T05:00:25;5.70;;;3.43;;
4517;SDS011;2271;49.464;11.070;2023-02-28T05:02:51;6.03;;;3.90;;
4517;SDS011;2271;49.464;11.070;2023-02-28T05:05:17;4.40;;;3.60;;
4517;SDS011;2271;49.464;11.070;2023-02-28T05:07:43;6.63;;;3.63;;
4517;SDS011;2271;49.464;11.070;2023-02-28T05:10:10;5.63;;;3.30;;
4517;SDS011;2271;49.464;11.070;2023-02-28T05:12:36;4.67;;;3.30;;
4517;SDS011;2271;49.464;11.070;2023-02-28T05:15:02;7.03;;;3.47;;
4517;SDS011;2271;49.464;11.070;2023-02-28T05:17:29;6.50;;;4.53;;
4517;SDS011;2271;49.464;11.070;2023-02-28T05:19:55;6.10;;;3.30;;
4517;SDS011;2271;49.464;11.070;2023-02-28T05:22:21;4.43;;;3.60;;
4517;SDS011;2271;49.464;11.070;2023-02-28T05:24:46;3.80;;;3.50;;
4517;SDS011;2271;49.464;11.070;2023-02-28T05:27:12;4.93;;;3.40;;
4517;SDS011;2271;49.464;11.070;2023-02-28T05:29:38;5.53;;;3.73;;
4517;SDS011;2271;49.464;11.070;2023-02-28T05:32:10;9.27;;;3.90;;
4517;SDS011;2271;49.464;11.070;2023-02-28T05:34:40;11.77;;;4.20;;
4517;SDS011;2271;49.464;11.070;2023-02-28T05:37:07;6.20;;;4.07;;
4517;SDS011;2271;49.464;11.070;2023-02-28T05:39:38;4.47;;;3.23;;
4517;SDS011;2271;49.464;11.070;2023-02-28T05:42:03;4.73;;;4.20;;
4517;SDS011;2271;49.464;11.070;2023-02-28T05:44:29;6.30;;;3.63;;
4517;SDS011;2271;49.464;11.070;2023-02-28T05:46:55;5.73;;;3.97;;
4517;SDS011;2271;49.464;11.070;2023-02-28T05:49:21;6.60;;;3.93;;
4517;SDS011;2271;49.464;11.070;2023-02-28T05:51:47;6.37;;;3.63;;
4517;SDS011;2271;49.464;11.070;2023-02-28T05:54:13;5.43;;;4.13;;
4517;SDS011;2271;49.464;11.070;2023-02-28T05:56:38;6.27;;;3.67;;
4517;SDS011;2271;49.464;11.070;2023-02-28T05:59:05;7.63;;;3.83;;
4517;SDS011;2271;49.464;11.070;2023-02-28T06:01:41;8.07;;;4.57;;
4517;SDS011;2271;49.464;11.070;2023-02-28T06:04:13;5.57;;;4.30;;
4517;SDS011;2271;49.464;11.070;2023-02-28T06:06:43;8.10;;;5.53;;
4517;SDS011;2271;49.464;11.070;2023-02-28T06:09:09;6.27;;;3.77;;
4517;SDS011;2271;49.464;11.070;2023-02-28T06:11:36;6.50;;;4.13;;
4517;SDS011;2271;49.464;11.070;2023-02-28T06:14:01;4.97;;;3.80;;
4517;SDS011;2271;49.464;11.070;2023-02-28T06:16:29;7.67;;;4.33;;
4517;SDS011;2271;49.464;11.070;2023-02-28T06:19:00;5.13;;;3.63;;
4517;SDS011;2271;49.464;11.070;2023-02-28T06:21:27;7.70;;;3.90;;
4517;SDS011;2271;49.464;11.070;2023-02-28T06:23:53;8.17;;;4.90;;
4517;SDS011;2271;49.464;11.070;2023-02-28T06:26:19;7.23;;;4.70;;
4517;SDS011;2271;49.464;11.070;2023-02-28T06:28:45;11.70;;;4.33;;
4517;SDS011;2271;49.464;11.070;2023-02-28T06:31:12;10.27;;;3.73;;
4517;SDS011;2271;49.464;11.070;2023-02-28T06:33:40;6.40;;;4.57;;
4517;SDS011;2271;49.464;11.070;2023-02-28T06:36:07;5.53;;;3.67;;
4517;SDS011;2271;49.464;11.070;2023-02-28T06:38:34;9.23;;;4.43;;
4517;SDS011;2271;49.464;11.070;2023-02-28T06:41:00;4.90;;;4.00;;
4517;SDS011;2271;49.464;11.070;2023-02-28T06:43:30;6.07;;;3.90;;
4517;SDS011;2271;49.464;11.070;2023-02-28T06:45:59;5.77;;;3.93;;
4517;SDS011;2271;49.464;11.070;2023-02-28T06:48:26;7.60;;;3.87;;
4517;SDS011;2271;49.464;11.070;2023-02-28T06:51:02;7.27;;;4.63;;
4517;SDS011;2271;49.464;11.070;2023-02-28T06:53:29;5.97;;;4.67;;
4517;SDS011;2271;49.464;11.070;2023-02-28T06:55:55;6.33;;;4.57;;
4517;SDS011;2271;49.464;11.070;2023-02-28T06:58:21;5.80;;;5.00;;
4517;SDS011;2271;49.464;11.070;2023-02-28T07:00:49;6.30;;;4.27;;
4517;SDS011;2271;49.464;11.070;2023-02-28T07:03:16;6.73;;;4.20;;
4517;SDS011;2271;49.464;11.070;2023-02-28T07:05:43;8.30;;;5.23;;
4517;SDS011;2271;49.464;11.070;2023-02-28T07:08:10;8.30;;;4.53;;
4517;SDS011;2271;49.464;11.070;2023-02-28T07:10:39;7.90;;;5.27;;
4517;SDS011;2271;49.464;11.070;2023-02-28T07:13:06;7.67;;;4.73;;
4517;SDS011;2271;49.464;11.070;2023-02-28T07:15:32;7.53;;;4.27;;
4517;SDS011;2271;49.464;11.070;2023-02-28T07:17:58;7.10;;;4.87;;
4517;SDS011;2271;49.464;11.070;2023-02-28T07:20:23;9.07;;;4.70;;
4517;SDS011;2271;49.464;11.070;2023-02-28T07:22:50;10.27;;;5.03;;
4517;SDS011;2271;49.464;11.070;2023-02-28T07:25:24;9.10;;;5.30;;
4517;SDS011;2271;49.464;11.070;2023-02-28T07:27:51;10.13;;;5.00;;
4517;SDS011;2271;49.464;11.070;2023-02-28T07:30:17;7.23;;;4.93;;
4517;SDS011;2271;49.464;11.070;2023-02-28T07:32:43;8.67;;;5.40;;
4517;SDS011;2271;49.464;11.070;2023-02-28T07:35:09;8.40;;;5.10;;
4517;SDS011;2271;49.464;11.070;2023-02-28T07:37:34;5.93;;;4.63;;
4517;SDS011;2271;49.464;11.070;2023-02-28T07:40:04;15.40;;;5.20;;
4517;SDS011;2271;49.464;11.070;2023-02-28T07:42:33;6.20;;;4.43;;
4517;SDS011;2271;49.464;11.070;2023-02-28T07:45:02;12.13;;;5.90;;
4517;SDS011;2271;49.464;11.070;2023-02-28T07:47:30;7.83;;;5.27;;
4517;SDS011;2271;49.464;11.070;2023-02-28T07:49:57;6.47;;;4.47;;
4517;SDS011;2271;49.464;11.070;2023-02-28T07:52:23;7.23;;;5.07;;
4517;SDS011;2271;49.464;11.070;2023-02-28T07:54:49;7.70;;;4.47;;
4517;SDS011;2271;49.464;11.070;2023-02-28T07:57:15;11.07;;;4.43;;
4517;SDS011;2271;49.464;11.070;2023-02-28T07:59:41;7.00;;;4.30;;
4517;SDS011;2271;49.464;11.070;2023-02-28T08:02:09;8.23;;;5.73;;
4517;SDS011;2271;49.464;11.070;2023-02-28T08:04:40;8.73;;;5.23;;
4517;SDS011;2271;49.464;11.070;2023-02-28T08:07:06;7.00;;;5.13;;
4517;SDS011;2271;49.464;11.070;2023-02-28T08:09:32;15.30;;;7.43;;
4517;SDS011;2271;49.464;11.070;2023-02-28T08:11:59;11.17;;;5.53;;
4517;SDS011;2271;49.464;11.070;2023-02-28T08:14:24;8.17;;;5.37;;
4517;SDS011;2271;49.464;11.070;2023-02-28T08:16:50;6.77;;;5.57;;
4517;SDS011;2271;49.464;11.070;2023-02-28T08:19:16;8.20;;;5.30;;
4517;SDS011;2271;49.464;11.070;2023-02-28T08:21:41;9.83;;;5.73;;
4517;SDS011;2271;49.464;11.070;2023-02-28T08:24:07;11.40;;;5.27;;
4517;SDS011;2271;49.464;11.070;2023-02-28T08:26:33;9.13;;;4.83;;
4517;SDS011;2271;49.464;11.070;2023-02-28T08:28:58;8.73;;;5.33;;
4517;SDS011;2271;49.464;11.070;2023-02-28T08:31:24;9.67;;;5.20;;
4517;SDS011;2271;49.464;11.070;2023-02-28T08:33:50;8.70;;;5.57;;
4517;SDS011;2271;49.464;11.070;2023-02-28T08:36:18;11.03;;;6.00;;
4517;SDS011;2271;49.464;11.070;2023-02-28T08:38:44;9.60;;;5.53;;
4517;SDS011;2271;49.464;11.070;2023-02-28T08:41:11;7.47;;;5.47;;
4517;SDS011;2271;49.464;11.070;2023-02-28T08:43:38;6.27;;;4.90;;
4517;SDS011;2271;49.464;11.070;2023-02-28T08:46:05;9.83;;;6.43;;
4517;SDS011;2271;49.464;11.070;2023-02-28T08:48:32;12.53;;;6.17;;
4517;SDS011;2271;49.464;11.070;2023-02-28T08:51:03;10.03;;;6.17;;
4517;SDS011;2271;49.464;11.070;2023-02-28T08:53:31;9.17;;;5.17;;
4517;SDS011;2271;49.464;11.070;2023-02-28T08:56:00;8.60;;;5.47;;
4517;SDS011;2271;49.464;11.070;2023-02-28T08:58:28;6.33;;;5.27;;
4517;SDS011;2271;49.464;11.070;2023-02-28T09:00:54;7.63;;;5.27;;
4517;SDS011;2271;49.464;11.070;2023-02-28T09:03:20;15.87;;;7.13;;
4517;SDS011;2271;49.464;11.070;2023-02-28T09:05:57;15.13;;;7.17;;
4517;SDS011;2271;49.464;11.070;2023-02-28T09:08:26;11.70;;;6.37;;
4517;SDS011;2271;49.464;11.070;2023-02-28T09:10:55;7.23;;;5.13;;
4517;SDS011;2271;49.464;11.070;2023-02-28T09:13:22;9.30;;;6.10;;
4517;SDS011;2271;49.464;11.070;2023-02-28T09:15:49;7.83;;;5.33;;
4517;SDS011;2271;49.464;11.070;2023-02-28T09:18:15;10.90;;;5.23;;
4517;SDS011;2271;49.464;11.070;2023-02-28T09:20:41;8.33;;;6.13;;
4517;SDS011;2271;49.464;11.070;2023-02-28T09:23:08;10.07;;;5.53;;
4517;SDS011;2271;49.464;11.070;2023-02-28T09:25:35;8.47;;;5.30;;
4517;SDS011;2271;49.464;11.070;2023-02-28T09:28:01;6.93;;;5.70;;
4517;SDS011;2271;49.464;11.070;2023-02-28T09:30:27;8.90;;;6.23;;
4517;SDS011;2271;49.464;11.070;2023-02-28T09:32:53;8.73;;;5.67;;
4517;SDS011;2271;49.464;11.070;2023-02-28T09:35:20;9.80;;;5.70;;
4517;SDS011;2271;49.464;11.070;2023-02-28T09:37:46;11.67;;;5.67;;
4517;SDS011;2271;49.464;11.070;2023-02-28T09:40:15;10.30;;;5.10;;
4517;SDS011;2271;49.464;11.070;2023-02-28T09:42:44;13.33;;;6.50;;
4517;SDS011;2271;49.464;11.070;2023-02-28T09:45:55;9.57;;;5.53;;
4517;SDS011;2271;49.464;11.070;2023-02-28T09:48:03;6.03;;;4.90;;
4517;SDS011;2271;49.464;11.070;2023-02-28T09:50:40;8.83;;;6.17;;
4517;SDS011;2271;49.464;11.070;2023-02-28T09:53:18;11.33;;;5.43;;
4517;SDS011;2271;49.464;11.070;2023-02-28T09:55:53;7.77;;;6.00;;
4517;SDS011;2271;49.464;11.070;2023-02-28T10:01:04;9.13;;;5.43;;
4517;SDS011;2271;49.464;11.070;2023-02-28T10:06:17;7.43;;;5.30;;
4517;SDS011;2271;49.464;11.070;2023-02-28T10:08:50;8.23;;;4.83;;
4517;SDS011;2271;49.464;11.070;2023-02-28T10:11:28;10.37;;;5.00;;
4517;SDS011;2271;49.464;11.070;2023-02-28T10:14:12;7.10;;;4.60;;
4517;SDS011;2271;49.464;11.070;2023-02-28T10:17:09;9.13;;;5.20;;
4517;SDS011;2271;49.464;11.070;2023-02-28T10:24:51;7.90;;;5.27;;
4517;SDS011;2271;49.464;11.070;2023-02-28T10:27:19;8.73;;;5.53;;
4517;SDS011;2271;49.464;11.070;2023-02-28T10:29:47;8.23;;;4.77;;
4517;SDS011;2271;49.464;11.070;2023-02-28T10:32:16;8.43;;;5.30;;
4517;SDS011;2271;49.464;11.070;2023-02-28T10:34:43;9.00;;;5.03;;
4517;SDS011;2271;49.464;11.070;2023-02-28T10:37:10;6.33;;;4.80;;
4517;SDS011;2271;49.464;11.070;2023-02-28T10:39:39;7.43;;;5.60;;
4517;SDS011;2271;49.464;11.070;2023-02-28T10:42:18;6.40;;;5.03;;
4517;SDS011;2271;49.464;11.070;2023-02-28T10:44:44;6.93;;;4.53;;
4517;SDS011;2271;49.464;11.070;2023-02-28T10:47:16;7.07;;;4.40;;
4517;SDS011;2271;49.464;11.070;2023-02-28T10:49:48;12.67;;;5.50;;
4517;SDS011;2271;49.464;11.070;2023-02-28T10:52:31;7.33;;;4.07;;
4517;SDS011;2271;49.464;11.070;2023-02-28T10:55:16;10.53;;;5.30;;
4517;SDS011;2271;49.464;11.070;2023-02-28T10:57:49;8.70;;;5.23;;
4517;SDS011;2271;49.464;11.070;2023-02-28T11:00:21;5.90;;;4.57;;
4517;SDS011;2271;49.464;11.070;2023-02-28T11:02:48;8.43;;;5.50;;
4517;SDS011;2271;49.464;11.070;2023-02-28T11:05:24;6.17;;;4.33;;
4517;SDS011;2271;49.464;11.070;2023-02-28T11:08:06;8.13;;;5.27;;
4517;SDS011;2271;49.464;11.070;2023-02-28T11:10:43;7.10;;;5.13;;
4517;SDS011;2271;49.464;11.070;2023-02-28T11:13:20;7.17;;;4.67;;
4517;SDS011;2271;49.464;11.070;2023-02-28T11:15:56;7.93;;;4.57;;
4517;SDS011;2271;49.464;11.070;2023-02-28T11:18:38;10.03;;;4.90;;
4517;SDS011;2271;49.464;11.070;2023-02-28T11:21:09;5.23;;;3.67;;
4517;SDS011;2271;49.464;11.070;2023-02-28T11:23:41;9.07;;;4.43;;
4517;SDS011;2271;49.464;11.070;2023-02-28T11:26:07;4.93;;;4.07;;
4517;SDS011;2271;49.464;11.070;2023-02-28T11:28:37;6.07;;;4.63;;
4517;SDS011;2271;49.464;11.070;2023-02-28T11:36:14;6.03;;;4.53;;
4517;SDS011;2271;49.464;11.070;2023-02-28T11:38:43;7.43;;;4.73;;
4517;SDS011;2271;49.464;11.070;2023-02-28T11:41:18;5.77;;;4.67;;
4517;SDS011;2271;49.464;11.070;2023-02-28T11:44:05;7.30;;;4.77;;
4517;SDS011;2271;49.464;11.070;2023-02-28T11:50:01;14.90;;;5.80;;
4517;SDS011;2271;49.464;11.070;2023-02-28T12:09:02;7.27;;;4.97;;
4517;SDS011;2271;49.464;11.070;2023-02-28T12:11:33;11.20;;;5.13;;
4517;SDS011;2271;49.464;11.070;2023-02-28T12:19:27;7.97;;;4.77;;
4517;SDS011;2271;49.464;11.070;2023-02-28T12:27:28;6.37;;;4.80;;
4517;SDS011;2271;49.464;11.070;2023-02-28T12:29:59;6.70;;;5.00;;
4517;SDS011;2271;49.464;11.070;2023-02-28T12:33:04;7.57;;;4.60;;
4517;SDS011;2271;49.464;11.070;2023-02-28T12:35:37;7.23;;;4.27;;
4517;SDS011;2271;49.464;11.070;2023-02-28T12:38:19;6.63;;;4.63;;
4517;SDS011;2271;49.464;11.070;2023-02-28T12:43:25;5.60;;;4.40;;
4517;SDS011;2271;49.464;11.070;2023-02-28T12:46:00;7.17;;;4.73;;
4517;SDS011;2271;49.464;11.070;2023-02-28T12:50:58;7.57;;;5.20;;
4517;SDS011;2271;49.464;11.070;2023-02-28T12:58:45;10.20;;;6.10;;
4517;SDS011;2271;49.464;11.070;2023-02-28T13:09:34;7.73;;;5.33;;
4517;SDS011;2271;49.464;11.070;2023-02-28T13:12:00;9.27;;;5.30;;
4517;SDS011;2271;49.464;11.070;2023-02-28T13:14:26;7.83;;;5.70;;
4517;SDS011;2271;49.464;11.070;2023-02-28T13:19:38;7.37;;;5.00;;
4517;SDS011;2271;49.464;11.070;2023-02-28T13:25:01;7.33;;;5.03;;
4517;SDS011;2271;49.464;11.070;2023-02-28T13:27:34;8.13;;;5.33;;
4517;SDS011;2271;49.464;11.070;2023-02-28T13:38:45;8.57;;;6.33;;
4517;SDS011;2271;49.464;11.070;2023-02-28T14:06:32;9.30;;;5.90;;
4517;SDS011;2271;49.464;11.070;2023-02-28T14:11:24;9.13;;;5.70;;
4517;SDS011;2271;49.464;11.070;2023-02-28T14:13:55;9.27;;;6.03;;
4517;SDS011;2271;49.464;11.070;2023-02-28T14:16:21;14.97;;;6.37;;
4517;SDS011;2271;49.464;11.070;2023-02-28T14:19:01;7.37;;;5.13;;
4517;SDS011;2271;49.464;11.070;2023-02-28T14:21:35;6.83;;;5.23;;
4517;SDS011;2271;49.464;11.070;2023-02-28T14:27:08;7.07;;;5.40;;
4517;SDS011;2271;49.464;11.070;2023-02-28T14:37:47;8.13;;;6.00;;
4517;SDS011;2271;49.464;11.070;2023-02-28T14:40:17;8.97;;;4.70;;
4517;SDS011;2271;49.464;11.070;2023-02-28T14:42:55;7.43;;;5.37;;
4517;SDS011;2271;49.464;11.070;2023-02-28T14:45:23;6.37;;;5.43;;
4517;SDS011;2271;49.464;11.070;2023-02-28T14:47:49;10.00;;;5.83;;
4517;SDS011;2271;49.464;11.070;2023-02-28T14:50:20;8.33;;;4.97;;
4517;SDS011;2271;49.464;11.070;2023-02-28T14:52:52;11.57;;;6.13;;
4517;SDS011;2271;49.464;11.070;2023-02-28T14:55:20;13.77;;;6.70;;
4517;SDS011;2271;49.464;11.070;2023-02-28T14:57:55;9.47;;;5.97;;
4517;SDS011;2271;49.464;11.070;2023-02-28T15:00:27;16.67;;;6.47;;
4517;SDS011;2271;49.464;11.070;2023-02-28T15:02:55;9.73;;;5.90;;
4517;SDS011;2271;49.464;11.070;2023-02-28T15:05:24;8.00;;;5.53;;
4517;SDS011;2271;49.464;11.070;2023-02-28T15:08:03;9.80;;;5.63;;
4517;SDS011;2271;49.464;11.070;2023-02-28T15:10:35;8.60;;;6.23;;
4517;SDS011;2271;49.464;11.070;2023-02-28T15:13:06;8.57;;;6.23;;
4517;SDS011;2271;49.464;11.070;2023-02-28T15:15:45;8.63;;;6.03;;
4517;SDS011;2271;49.464;11.070;2023-02-28T15:21:04;16.43;;;6.07;;
4517;SDS011;2271;49.464;11.070;2023-02-28T15:23:32;9.07;;;6.23;;
4517;SDS011;2271;49.464;11.070;2023-02-28T15:26:01;7.70;;;6.47;;
4517;SDS011;2271;49.464;11.070;2023-02-28T15:28:27;12.53;;;5.97;;
4517;SDS011;2271;49.464;11.070;2023-02-28T15:30:58;7.33;;;5.93;;
4517;SDS011;2271;49.464;11.070;2023-02-28T15:33:29;10.80;;;6.50;;
4517;SDS011;2271;49.464;11.070;2023-02-28T15:36:05;10.30;;;6.30;;
4517;SDS011;2271;49.464;11.070;2023-02-28T15:38:35;12.70;;;6.00;;
4517;SDS011;2271;49.464;11.070;2023-02-28T15:41:01;6.33;;;5.37;;
4517;SDS011;2271;49.464;11.070;2023-02-28T15:43:36;8.60;;;5.37;;
4517;SDS011;2271;49.464;11.070;2023-02-28T15:46:05;18.40;;;7.00;;
4517;SDS011;2271;49.464;11.070;2023-02-28T15:48:33;10.17;;;6.20;;
4517;SDS011;2271;49.464;11.070;2023-02-28T15:51:12;8.70;;;6.33;;
4517;SDS011;2271;49.464;11.070;2023-02-28T15:53:54;10.77;;;7.03;;
4517;SDS011;2271;49.464;11.070;2023-02-28T15:56:33;8.40;;;6.37;;
4517;SDS011;2271;49.464;11.070;2023-02-28T15:59:04;10.97;;;6.30;;
4517;SDS011;2271;49.464;11.070;2023-02-28T16:01:33;11.33;;;7.97;;
4517;SDS011;2271;49.464;11.070;2023-02-28T16:04:04;15.93;;;9.10;;
4517;SDS011;2271;49.464;11.070;2023-02-28T16:09:26;9.00;;;6.60;;
4517;SDS011;2271;49.464;11.070;2023-02-28T16:11:53;13.47;;;7.07;;
4517;SDS011;2271;49.464;11.070;2023-02-28T16:14:24;8.43;;;6.47;;
4517;SDS011;2271;49.464;11.070;2023-02-28T16:16:53;11.50;;;7.30;;
4517;SDS011;2271;49.464;11.070;2023-02-28T16:19:21;10.93;;;6.77;;
4517;SDS011;2271;49.464;11.070;2023-02-28T16:21:47;8.30;;;6.63;;
4517;SDS011;2271;49.464;11.070;2023-02-28T16:24:13;9.60;;;7.13;;
4517;SDS011;2271;49.464;11.070;2023-02-28T16:26:42;8.13;;;5.67;;
4517;SDS011;2271;49.464;11.070;2023-02-28T16:29:19;12.40;;;6.47;;
4517;SDS011;2271;49.464;11.070;2023-02-28T16:31:59;8.20;;;6.87;;
4517;SDS011;2271;49.464;11.070;2023-02-28T16:34:26;7.70;;;5.63;;
4517;SDS011;2271;49.464;11.070;2023-02-28T16:36:52;10.27;;;5.47;;
4517;SDS011;2271;49.464;11.070;2023-02-28T16:39:18;7.77;;;6.40;;
4517;SDS011;2271;49.464;11.070;2023-02-28T16:41:46;10.07;;;7.00;;
4517;SDS011;2271;49.464;11.070;2023-02-28T16:44:21;8.77;;;7.17;;
4517;SDS011;2271;49.464;11.070;2023-02-28T16:46:53;10.17;;;7.00;;
4517;SDS011;2271;49.464;11.070;2023-02-28T16:49:19;10.87;;;6.80;;
4517;SDS011;2271;49.464;11.070;2023-02-28T16:51:45;9.97;;;6.80;;
4517;SDS011;2271;49.464;11.070;2023-02-28T16:54:11;10.80;;;7.20;;
4517;SDS011;2271;49.464;11.070;2023-02-28T16:56:36;10.50;;;7.17;;
4517;SDS011;2271;49.464;11.070;2023-02-28T16:59:05;9.97;;;6.67;;
4517;SDS011;2271;49.464;11.070;2023-02-28T17:01:33;11.70;;;7.40;;
4517;SDS011;2271;49.464;11.070;2023-02-28T17:03:58;11.60;;;7.30;;
4517;SDS011;2271;49.464;11.070;2023-02-28T17:06:25;10.37;;;6.90;;
4517;SDS011;2271;49.464;11.070;2023-02-28T17:08:55;10.97;;;8.00;;
4517;SDS011;2271;49.464;11.070;2023-02-28T17:11:22;11.30;;;7.57;;
4517;SDS011;2271;49.464;11.070;2023-02-28T17:13:49;10.23;;;7.07;;
4517;SDS011;2271;49.464;11.070;2023-02-28T17:16:19;10.57;;;6.97;;
4517;SDS011;2271;49.464;11.070;2023-02-28T17:18:50;11.13;;;7.97;;
4517;SDS011;2271;49.464;11.070;2023-02-28T17:21:16;11.83;;;7.77;;
4517;SDS011;2271;49.464;11.070;2023-02-28T17:23:42;10.53;;;6.63;;
4517;SDS011;2271;49.464;11.070;2023-02-28T17:26:14;14.37;;;8.57;;
4517;SDS011;2271;49.464;11.070;2023-02-28T17:28:42;9.60;;;6.03;;
4517;SDS011;2271;49.464;11.070;2023-02-28T17:31:08;12.40;;;7.53;;
4517;SDS011;2271;49.464;11.070;2023-02-28T17:33:34;11.17;;;7.77;;
4517;SDS011;2271;49.464;11.070;2023-02-28T17:36:00;10.07;;;6.77;;
4517;SDS011;2271;49.464;11.070;2023-02-28T17:38:26;11.97;;;7.47;;
4517;SDS011;2271;49.464;11.070;2023-02-28T17:40:52;13.53;;;8.37;;
4517;SDS011;2271;49.464;11.070;2023-02-28T17:43:22;13.33;;;8.53;;
4517;SDS011;2271;49.464;11.070;2023-02-28T17:45:48;10.87;;;7.70;;
4517;SDS011;2271;49.464;11.070;2023-02-28T17:48:14;15.90;;;8.50;;
4517;SDS011;2271;49.464;11.070;2023-02-28T17:50:39;12.37;;;7.17;;
4517;SDS011;2271;49.464;11.070;2023-02-28T17:53:05;13.53;;;8.10;;
4517;SDS011;2271;49.464;11.070;2023-02-28T17:55:31;12.70;;;7.83;;
4517;SDS011;2271;49.464;11.070;2023-02-28T17:57:58;15.17;;;8.13;;
4517;SDS011;2271;49.464;11.070;2023-02-28T18:00:24;11.43;;;8.13;;
4517;SDS011;2271;49.464;11.070;2023-02-28T18:02:49;10.53;;;7.37;;